Airfield :
LOGIN :

Register | Disclaimer

   EN    FR    IT 

 










Legend :    VFR   Marginal VFR   IFR   Intensive IFR   Very Intensive IFR
Visi :
Ceiling :
>= 8 km
>= 3000ft
5 to 8 km
1000 to 3000 ft
1500m to 5 km
500 to 1000 ft
800 to 1500m
200 to 500 ft
< 800m
< 200 ft
Symbols :   Thunderstorms  Fog  Heavy snow  Heavy precipitations  Wind > 20 kt
SIGMETs :     Misc.  Thunderstorms  Icing  Turbulence  Mountain Waves  Volcanic Ashes







- Airport Elevation : 291 ft
- IATA code : ORY
- Download approach charts


LFPO - Paris-Orly

CURRENT METAR :
  • 262000Z 03014KT 360V060 CAVOK 27/20 Q1021 NOSIG

EXPIRED METARs :
  • 261930Z 03013KT CAVOK 28/21 Q1021 NOSIG
  • 261900Z 04015KT CAVOK 29/22 Q1020 NOSIG
  • 261830Z 03013KT CAVOK 29/22 Q1020 NOSIG
  • 261800Z 04012KT CAVOK 30/23 Q1020 NOSIG
  • 261730Z 05013KT CAVOK 31/23 Q1019 NOSIG

TAF TAF LFPO
Valid from the 26 at 18:00 until the 28 at 00:00 UTC


261700Z 2618/2724 04012KT CAVOK
TEMPO 2618/2723 04012G22KT
ATIS : +33 1 49 75 65 80
No reported NOTAMs for that airfield.



MET'MAP, your aeronautical weather chart ! - Copyright ORBIFLY December 2007 - Disclaimer

ORBIFLY MET'MAP TEAM :

Programming & Development : Alexandra Zaïnal
Concept & Development : Baudouin d'Aumeries
Co-Development & Prog : Marc-Olivier Méhu
Technical & hardware support : Manuel Goepfert

Contact : metmap@orbifly.com




SOURCES & CREDITS :

   NOAA